Terminal Aerodrome Forecast
Issued by NWS

Current Version | Previous Version | Graphics & Text | Print | Product List | Glossary On
Versions: 1 2 3 4 5 6 7 8 9 10 11 12 13 14 15 16 17 18 19 20 21 22 23 24 25 26 27 28 29 30 31 32
055
FTUS41 KILN 151044 AAA
TAFLUK
TAF AMD
KLUK 151044Z 1511/1606 23011KT P6SM -DZ OVC015
     FM151400 23012KT P6SM VCSH OVC018
     FM151900 22012KT 4SM -SHRA OVC025
     FM152300 23014KT 3SM -SHRA OVC015=

USA.gov is the U.S. government's official web portal to all federal, state and local government web resources and services.